createdAt,value
2023-03-25T00:01:59.024Z,81.88
2023-03-25T00:07:01.725Z,82.19
2023-03-25T00:12:04.105Z,82.85
2023-03-25T00:17:07.951Z,83.62
2023-03-25T00:22:09.689Z,83.86
2023-03-25T00:27:11.451Z,83.61
2023-03-25T00:32:16.429Z,83.37
2023-03-25T00:37:18.354Z,82.85
2023-03-25T00:42:26.357Z,83.00
2023-03-25T00:47:28.930Z,83.40
2023-03-25T00:52:36.492Z,83.80
2023-03-25T00:57:38.329Z,85.06
2023-03-25T01:02:40.094Z,85.98
2023-03-25T01:07:42.313Z,86.21
2023-03-25T01:12:44.027Z,85.96
2023-03-25T01:17:46.360Z,85.96
2023-03-25T01:22:48.157Z,85.77
2023-03-25T01:27:49.973Z,84.63
2023-03-25T01:32:51.716Z,83.71
2023-03-25T01:37:54.788Z,83.15
2023-03-25T01:42:56.741Z,82.60
2023-03-25T01:48:23.038Z,81.48
2023-03-25T01:53:30.227Z,79.04
2023-03-25T01:58:33.361Z,78.34
2023-03-25T02:03:37.248Z,78.68
2023-03-25T02:08:41.603Z,78.95
2023-03-25T02:13:43.687Z,78.71
2023-03-25T02:19:06.855Z,78.45
2023-03-25T02:24:46.406Z,78.10
2023-03-25T02:30:09.160Z,78.51
2023-03-25T02:35:10.862Z,78.09
2023-03-25T02:40:26.016Z,77.52
2023-03-25T02:45:32.066Z,76.87
2023-03-25T02:50:43.670Z,76.21
2023-03-25T02:55:48.075Z,76.04
2023-03-25T03:00:52.181Z,75.32
2023-03-25T03:05:58.869Z,75.62
2023-03-25T03:11:09.506Z,76.13
2023-03-25T03:16:30.989Z,76.46
2023-03-25T03:21:38.749Z,76.60
2023-03-25T03:26:49.553Z,76.59
2023-03-25T03:32:13.468Z,76.51
2023-03-25T03:37:21.239Z,76.59
2023-03-25T03:42:31.088Z,76.38
2023-03-25T03:47:38.381Z,76.68
2023-03-25T03:52:50.830Z,76.68
2023-03-25T03:57:58.921Z,76.36
2023-03-25T04:03:15.851Z,76.76
2023-03-25T04:08:28.787Z,76.50
2023-03-25T04:13:35.429Z,76.94
2023-03-25T04:18:37.178Z,77.39
2023-03-25T04:23:41.176Z,77.33
2023-03-25T04:28:44.618Z,77.90
2023-03-25T04:33:50.689Z,78.52
2023-03-25T04:38:53.177Z,78.45
2023-03-25T04:43:54.951Z,78.74
2023-03-25T04:48:57.154Z,78.97
2023-03-25T04:53:59.226Z,79.00
2023-03-25T04:59:00.919Z,79.26
2023-03-25T05:06:13.987Z,79.10
2023-03-25T05:11:15.725Z,79.17
2023-03-25T05:16:17.708Z,79.65
2023-03-25T05:21:19.571Z,79.76
2023-03-25T05:26:21.314Z,79.69
2023-03-25T05:31:23.037Z,79.44
2023-03-25T05:36:25.212Z,79.25
2023-03-25T05:41:38.791Z,78.77
2023-03-25T05:46:40.609Z,78.53
2023-03-25T05:51:45.226Z,78.32
2023-03-25T05:56:47.227Z,78.29
2023-03-25T06:01:50.033Z,78.02
2023-03-25T06:06:51.781Z,77.74
2023-03-25T06:11:53.708Z,77.36
2023-03-25T06:16:56.917Z,76.49
2023-03-25T06:21:58.691Z,75.78
2023-03-25T06:27:00.430Z,75.48
2023-03-25T06:32:02.149Z,75.50
2023-03-25T06:37:04.024Z,75.68
2023-03-25T06:42:06.218Z,75.92
2023-03-25T06:47:36.647Z,76.15
2023-03-25T06:52:38.630Z,75.38
2023-03-25T06:57:42.159Z,74.93
2023-03-25T07:02:43.893Z,72.74
2023-03-25T07:07:45.673Z,70.07
2023-03-25T07:12:47.879Z,67.16
2023-03-25T07:17:49.898Z,65.54
2023-03-25T07:22:54.455Z,63.67
2023-03-25T07:27:56.405Z,61.51
2023-03-25T07:32:58.640Z,61.52
2023-03-25T07:38:00.449Z,61.21
2023-03-25T07:43:02.272Z,61.31
2023-03-25T07:48:34.312Z,60.99
2023-03-25T07:53:39.104Z,61.30
2023-03-25T07:58:42.093Z,61.54
2023-03-25T08:03:43.958Z,61.04
2023-03-25T08:08:46.397Z,60.53
2023-03-25T08:13:48.202Z,61.18
2023-03-25T08:18:53.203Z,59.73
2023-03-25T08:23:58.536Z,58.90
2023-03-25T08:29:02.764Z,58.02
2023-03-25T08:34:05.633Z,57.32
2023-03-25T08:39:11.838Z,57.18
2023-03-25T08:44:13.840Z,56.65
2023-03-25T08:49:15.520Z,56.21
2023-03-25T08:54:17.445Z,55.10
2023-03-25T08:59:19.691Z,55.67
2023-03-25T09:04:21.421Z,53.76
2023-03-25T09:09:23.504Z,51.96
2023-03-25T09:14:25.375Z,51.95
2023-03-25T09:19:27.169Z,50.59
2023-03-25T09:24:29.017Z,49.88
2023-03-25T09:29:30.867Z,51.34
2023-03-25T09:34:32.578Z,52.28
2023-03-25T09:39:34.328Z,52.79
2023-03-25T09:44:57.192Z,54.48
2023-03-25T09:50:02.113Z,53.01
2023-03-25T09:55:08.719Z,53.95
2023-03-25T10:00:20.581Z,56.11
2023-03-25T10:05:46.823Z,55.84
2023-03-25T10:11:09.887Z,54.92
2023-03-25T10:16:31.458Z,59.38
2023-03-25T10:21:54.785Z,61.82
2023-03-25T10:27:27.110Z,61.12
2023-03-25T10:32:40.609Z,58.74
2023-03-25T10:37:42.667Z,59.26
2023-03-25T10:42:55.580Z,59.32
2023-03-25T10:48:23.259Z,55.59
2023-03-25T10:53:27.947Z,52.24
2023-03-25T10:58:31.861Z,51.64
2023-03-25T11:03:35.453Z,49.18
2023-03-25T11:08:37.252Z,48.35
2023-03-25T11:13:41.207Z,47.31
2023-03-25T11:18:44.440Z,46.68
2023-03-25T11:23:51.821Z,45.45
2023-03-25T11:28:56.724Z,45.16
2023-03-25T11:34:10.684Z,43.79
2023-03-25T11:39:34.127Z,42.78
2023-03-25T11:44:35.864Z,43.07
2023-03-25T11:49:41.347Z,43.50
2023-03-25T11:54:44.755Z,43.90
2023-03-25T11:59:48.168Z,49.80
2023-03-25T12:05:12.318Z,55.59
2023-03-25T12:10:19.067Z,59.70
2023-03-25T12:15:33.434Z,59.71
2023-03-25T12:20:56.316Z,65.26
2023-03-25T12:26:11.733Z,66.45
2023-03-25T12:31:43.723Z,67.54
2023-03-25T12:37:25.095Z,67.68
2023-03-25T12:42:39.267Z,61.03
2023-03-25T12:47:46.121Z,56.16
2023-03-25T12:53:17.454Z,55.05
2023-03-25T12:58:37.478Z,51.35
2023-03-25T13:04:05.224Z,44.35
2023-03-25T13:09:18.524Z,38.66
2023-03-25T13:14:27.368Z,39.51
2023-03-25T13:19:34.708Z,39.70
2023-03-25T13:24:49.681Z,39.14
2023-03-25T13:29:54.603Z,39.59
2023-03-25T13:35:11.674Z,40.23
2023-03-25T13:40:25.962Z,39.17
2023-03-25T13:45:32.915Z,40.18
2023-03-25T13:50:36.494Z,40.12
2023-03-25T13:55:46.425Z,41.20
2023-03-25T14:01:03.716Z,43.99
2023-03-25T14:06:08.859Z,45.63
2023-03-25T14:11:38.009Z,45.43
2023-03-25T14:16:47.674Z,44.86
2023-03-25T14:21:51.763Z,44.56
2023-03-25T14:26:59.840Z,43.84
2023-03-25T14:32:16.709Z,43.88
2023-03-25T14:37:27.833Z,44.67
2023-03-25T14:42:58.367Z,44.30
2023-03-25T14:48:00.695Z,45.12
2023-03-25T14:53:06.925Z,48.21
2023-03-25T14:58:25.499Z,55.44
2023-03-25T15:03:33.934Z,57.79
2023-03-25T15:08:39.308Z,58.20
2023-03-25T15:13:52.844Z,57.28
2023-03-25T15:18:54.594Z,57.29
2023-03-25T15:24:09.929Z,58.00
2023-03-25T15:29:39.459Z,57.22
2023-03-25T15:34:50.343Z,54.43
2023-03-25T15:40:10.083Z,52.33
2023-03-25T15:45:51.807Z,52.43
2023-03-25T15:51:32.309Z,53.06
2023-03-25T15:56:41.148Z,55.07
2023-03-25T16:01:47.594Z,54.87
2023-03-25T16:06:53.894Z,55.71
2023-03-25T16:12:00.484Z,57.34
2023-03-25T16:17:07.378Z,58.34
2023-03-25T16:22:32.041Z,59.32
2023-03-25T16:27:33.695Z,59.49
2023-03-25T16:32:36.132Z,60.03
2023-03-25T16:37:40.018Z,59.41
2023-03-25T16:42:41.764Z,59.38
2023-03-25T16:47:46.269Z,59.15
2023-03-25T16:52:50.469Z,58.74
2023-03-25T16:57:52.492Z,59.67
2023-03-25T17:02:54.630Z,60.52
2023-03-25T17:07:59.993Z,62.38
2023-03-25T17:13:09.164Z,62.76
2023-03-25T17:18:15.786Z,63.09
2023-03-25T17:23:17.417Z,64.21
2023-03-25T17:28:19.834Z,63.83
2023-03-25T17:33:39.197Z,63.97
2023-03-25T17:38:47.338Z,64.47
2023-03-25T17:43:54.094Z,64.97
2023-03-25T17:48:57.854Z,65.66
2023-03-25T17:53:59.587Z,65.29
2023-03-25T17:59:04.902Z,65.37
2023-03-25T18:04:06.945Z,65.46
2023-03-25T18:09:24.150Z,65.80
2023-03-25T18:14:26.614Z,65.89
2023-03-25T18:19:31.258Z,65.84
2023-03-25T18:24:34.252Z,65.78
2023-03-25T18:29:37.689Z,65.94
2023-03-25T18:34:39.397Z,66.31
2023-03-25T18:39:41.166Z,67.12
2023-03-25T18:44:42.920Z,68.27
2023-03-25T18:49:44.668Z,68.81
2023-03-25T18:54:46.672Z,68.72
2023-03-25T18:59:48.395Z,68.70
2023-03-25T19:05:00.227Z,68.76
2023-03-25T19:10:02.680Z,68.81
2023-03-25T19:15:05.032Z,68.83
2023-03-25T19:20:09.163Z,69.72
2023-03-25T19:25:11.545Z,70.34
2023-03-25T19:30:17.588Z,71.06
2023-03-25T19:35:21.552Z,71.03
2023-03-25T19:40:26.262Z,71.52
2023-03-25T19:45:30.357Z,71.90
2023-03-25T19:50:32.925Z,72.30
2023-03-25T19:55:34.979Z,73.45
2023-03-25T20:00:36.681Z,74.70
2023-03-25T20:05:38.416Z,75.17
2023-03-25T20:10:41.465Z,75.41
2023-03-25T20:15:43.648Z,75.88
2023-03-25T20:20:45.418Z,75.63
2023-03-25T20:25:47.415Z,74.70
2023-03-25T20:30:49.109Z,73.12
2023-03-25T20:35:51.277Z,72.20
2023-03-25T20:40:54.696Z,72.06
2023-03-25T20:45:56.952Z,73.25
2023-03-25T20:51:04.418Z,74.43
2023-03-25T20:56:06.475Z,74.51
2023-03-25T21:01:08.300Z,74.64
2023-03-25T21:06:22.866Z,72.39
2023-03-25T21:11:25.723Z,71.47
2023-03-25T21:16:27.672Z,69.38
2023-03-25T21:21:29.860Z,68.63
2023-03-25T21:26:32.439Z,67.49
2023-03-25T21:31:34.205Z,67.45
2023-03-25T21:36:36.019Z,66.77
2023-03-25T21:41:38.029Z,66.73
2023-03-25T21:46:40.966Z,66.00
2023-03-25T21:51:44.296Z,66.11
2023-03-25T21:56:47.037Z,66.61
2023-03-25T22:01:48.871Z,66.67
2023-03-25T22:06:51.390Z,67.00
2023-03-25T22:11:53.987Z,67.70
2023-03-25T22:16:55.794Z,68.05
2023-03-25T22:21:57.673Z,69.05
2023-03-25T22:26:59.608Z,70.40
2023-03-25T22:32:07.039Z,71.41
2023-03-25T22:37:09.064Z,72.13
2023-03-25T22:42:14.498Z,72.93
2023-03-25T22:47:19.954Z,73.17
2023-03-25T22:52:41.773Z,73.53
2023-03-25T22:57:43.497Z,73.98
2023-03-25T23:02:47.056Z,74.41
2023-03-25T23:07:48.845Z,74.19
2023-03-25T23:12:51.065Z,74.14
2023-03-25T23:17:52.773Z,74.29
2023-03-25T23:22:54.821Z,74.65
2023-03-25T23:27:58.140Z,74.83
2023-03-25T23:33:00.014Z,75.07
2023-03-25T23:38:01.834Z,75.30
2023-03-25T23:43:03.595Z,75.50
2023-03-25T23:48:06.498Z,75.51
2023-03-25T23:53:08.336Z,75.90
2023-03-25T23:58:10.150Z,76.15
